Houston, Texas
Traffic Map
Current Weather Conditions
Houston, Texas
Overcast Light Rain
Overcast
70°
Feels Like: 70°
Wind Chill: 70° Ceiling: 1400
Heat Index: 70° Visibility: 2mi
Dew Point: 68° Wind: 3mph
Humidity: 93% Direction: 300° (WNW)
Pressure: 30.14in Gusts: 0mph
Raw Report DataKIAH 222253Z 30003KT 2SM -RA BR FEW009 BKN014 OVC060 21/20 A3014 RMK AO2 LTG DSNT NE RAE03B26 SLP204 VIS 2V3 P0001 T02110200
Traffic Incident Summary
Active as of:
Severity:
Category:
InformationThere was an issue retrieving the traffic information for this location. Please try a different location or try again shortly.
Advertisements